Time;durP1;ratioP1;P1;durP2;ratioP2;P2;SDS_P1;SDS_P2;PMS_P1;PMS_P2;Temp;Humidity;BMP_temperature;BMP_pressure;BME280_temperature;BME280_humidity;BME280_pressure;Samples;Min_cycle;Max_cycle;Signal;HPM_P1;HPM_P2
2023/01/23 00:00:47;;;;;;;37.28;16.30;;;;;;;-4.41;85.66;97327.44;5045849;28;20057;-93
2023/01/23 00:03:13;;;;;;;42.70;18.20;;;;;;;-4.43;85.85;97337.47;5047668;28;20492;-90
2023/01/23 00:05:40;;;;;;;42.92;17.25;;;;;;;-4.44;86.42;97333.13;5031862;28;20042;-91
2023/01/23 00:08:06;;;;;;;36.85;16.05;;;;;;;-4.44;87.40;97333.13;5032292;28;20045;-92
2023/01/23 00:10:34;;;;;;;36.08;16.50;;;;;;;-4.44;88.09;97339.28;5043289;28;20051;-92
2023/01/23 00:13:01;;;;;;;37.33;15.95;;;;;;;-4.45;88.78;97337.63;5034528;28;20049;-92
2023/01/23 00:15:27;;;;;;;37.10;15.65;;;;;;;-4.47;89.39;97350.31;5030754;28;20062;-87
2023/01/23 00:17:54;;;;;;;39.25;15.90;;;;;;;-4.50;89.67;97351.53;5030697;28;20041;-90
2023/01/23 00:20:20;;;;;;;35.55;16.10;;;;;;;-4.53;90.04;97343.97;5041720;28;20048;-92
2023/01/23 00:22:47;;;;;;;36.90;15.82;;;;;;;-4.50;90.15;97350.72;5043102;28;20044;-92
2023/01/23 00:25:14;;;;;;;38.35;16.85;;;;;;;-4.47;90.23;97351.13;5022945;28;20056;-91
2023/01/23 00:27:41;;;;;;;41.13;17.67;;;;;;;-4.47;90.21;97352.97;5027737;28;20037;-92
2023/01/23 00:30:09;;;;;;;41.30;18.17;;;;;;;-4.53;89.88;97346.63;5032484;28;20417;-88
2023/01/23 00:32:36;;;;;;;41.17;17.10;;;;;;;-4.49;89.56;97353.19;5022562;28;20048;-91
2023/01/23 00:35:03;;;;;;;36.38;16.85;;;;;;;-4.44;89.09;97349.09;5031190;28;20065;-92
2023/01/23 00:37:30;;;;;;;35.72;15.23;;;;;;;-4.43;89.27;97348.91;5038638;28;20072;-91
2023/01/23 00:39:56;;;;;;;38.55;16.17;;;;;;;-4.37;89.60;97349.97;5047186;28;20045;-90
2023/01/23 00:42:23;;;;;;;35.50;15.90;;;;;;;-4.31;89.64;97347.31;5030405;28;20047;-92
2023/01/23 00:44:51;;;;;;;37.42;15.48;;;;;;;-4.28;89.72;97348.75;5031187;28;20061;-91
2023/01/23 00:47:17;;;;;;;38.95;15.77;;;;;;;-4.26;89.79;97352.03;5030812;28;20053;-92
2023/01/23 00:49:44;;;;;;;36.25;15.55;;;;;;;-4.21;89.92;97349.59;5039422;28;20038;-93
2023/01/23 00:52:10;;;;;;;35.40;16.35;;;;;;;-4.16;89.89;97357.78;5032192;28;20044;-91
2023/01/23 00:54:38;;;;;;;37.25;16.30;;;;;;;-4.12;89.67;97356.38;5045587;28;20045;-89
2023/01/23 00:57:04;;;;;;;37.47;16.45;;;;;;;-4.13;89.77;97354.72;5038336;28;20041;-90
2023/01/23 00:59:31;;;;;;;35.63;15.63;;;;;;;-4.11;89.48;97362.53;5031278;28;20048;-92
2023/01/23 01:01:59;;;;;;;38.67;16.23;;;;;;;-4.11;89.50;97365.19;5031127;28;20053;-90
2023/01/23 01:04:25;;;;;;;39.53;17.55;;;;;;;-4.08;89.31;97365.56;5030694;28;20048;-94
2023/01/23 01:06:52;;;;;;;38.90;17.05;;;;;;;-4.05;89.35;97373.16;5038842;28;20038;-92
2023/01/23 01:09:18;;;;;;;33.38;15.77;;;;;;;-3.97;89.39;97375.66;5041513;28;20048;-91
2023/01/23 01:11:45;;;;;;;35.17;17.13;;;;;;;-3.92;89.34;97376.88;5040028;28;20037;-92
2023/01/23 01:14:12;;;;;;;33.78;16.42;;;;;;;-3.87;89.39;97377.09;5037334;28;20049;-93
2023/01/23 01:16:43;;;;;;;35.85;16.27;;;;;;;-3.80;89.29;97372.63;5050601;28;20037;-93
2023/01/23 01:19:12;;;;;;;39.30;17.80;;;;;;;-3.76;89.31;97363.19;5034221;28;20037;-91
2023/01/23 01:21:39;;;;;;;42.85;19.50;;;;;;;-3.70;89.35;97373.06;5035939;28;20056;-91
2023/01/23 01:24:06;;;;;;;39.58;17.48;;;;;;;-3.68;89.05;97365.66;5044728;28;20056;-93
2023/01/23 01:26:33;;;;;;;36.80;17.27;;;;;;;-3.68;88.98;97363.00;5042525;28;20046;-92
2023/01/23 01:28:59;;;;;;;35.33;16.65;;;;;;;-3.69;88.86;97374.69;5025608;28;20048;-92
2023/01/23 01:31:26;;;;;;;35.88;16.98;;;;;;;-3.69;89.58;97364.84;5041636;28;20045;-92
2023/01/23 01:33:53;;;;;;;35.88;17.00;;;;;;;-3.59;89.75;97375.09;5049953;28;20036;-89
2023/01/23 01:36:23;;;;;;;37.65;17.02;;;;;;;-3.65;89.49;97375.94;5050144;28;20053;-91
2023/01/23 01:38:49;;;;;;;37.47;17.20;;;;;;;-3.62;89.26;97375.50;5033969;28;20127;-89
2023/01/23 01:41:17;;;;;;;38.63;17.75;;;;;;;-3.57;88.51;97373.06;5043981;28;20045;-92
2023/01/23 01:43:44;;;;;;;34.90;16.95;;;;;;;-3.55;88.64;97371.03;5030186;28;20042;-91
2023/01/23 01:46:19;;;;;;;38.22;17.30;;;;;;;-3.52;88.84;97362.63;5051551;28;20045;-92
2023/01/23 01:48:50;;;;;;;37.97;16.65;;;;;;;-3.63;87.98;97363.22;5045499;28;20425;-92
2023/01/23 01:51:24;;;;;;;38.03;17.40;;;;;;;-3.60;88.02;97362.81;5044656;28;20054;-88
2023/01/23 01:53:57;;;;;;;35.63;17.02;;;;;;;-3.68;87.64;97360.34;5037917;28;20045;-88
2023/01/23 01:56:25;;;;;;;;;;;;;;;-3.69;87.50;97356.88;5033778;28;20048;-93
2023/01/23 01:58:53;;;;;;;34.40;15.32;;;;;;;-3.68;87.41;97357.69;5041881;28;19920;-90
2023/01/23 02:01:20;;;;;;;36.50;16.15;;;;;;;-3.64;87.57;97364.25;5041600;28;20041;-92
2023/01/23 02:03:48;;;;;;;38.50;16.75;;;;;;;-3.57;88.03;97357.06;5030708;28;20098;-93
2023/01/23 02:06:14;;;;;;;33.38;15.80;;;;;;;-3.50;88.32;97363.25;5050309;28;20211;-94
2023/01/23 02:08:48;;;;;;;37.97;16.13;;;;;;;-3.40;88.73;97357.50;5041776;28;20052;-91
2023/01/23 02:11:17;;;;;;;42.67;17.58;;;;;;;-3.33;89.10;97346.84;5017460;28;20056;-92
2023/01/23 02:13:44;;;;;;;38.45;17.75;;;;;;;-3.23;89.51;97349.94;5046959;28;20048;-92
2023/01/23 02:16:14;;;;;;;36.85;17.25;;;;;;;-3.23;89.63;97344.59;5032434;28;20037;-86
2023/01/23 02:18:44;;;;;;;36.33;17.02;;;;;;;-3.21;89.74;97346.00;5038938;28;20052;-86
2023/01/23 02:21:13;;;;;;;38.20;16.70;;;;;;;-3.15;89.66;97355.03;5035328;28;20073;-93
2023/01/23 02:24:07;;;;;;;36.60;16.73;;;;;;;-3.12;89.80;97349.28;5047671;28;20049;-89
2023/01/23 02:26:39;;;;;;;39.38;17.63;;;;;;;-3.11;89.87;97337.59;5039796;28;20044;-87
2023/01/23 02:29:06;;;;;;;38.78;17.10;;;;;;;-3.08;89.64;97341.69;5050269;28;20116;-91
2023/01/23 02:31:33;;;;;;;40.88;17.48;;;;;;;-3.07;89.34;97335.34;5037704;28;20041;-91
2023/01/23 02:34:01;;;;;;;36.42;17.73;;;;;;;-3.07;89.32;97346.00;5052609;28;20123;-91
2023/01/23 02:36:29;;;;;;;37.38;16.90;;;;;;;-3.04;89.23;97340.25;5043664;28;20044;-91
2023/01/23 02:39:04;;;;;;;41.78;18.58;;;;;;;-3.04;89.38;97351.72;5044563;28;20648;-90
2023/01/23 02:41:34;;;;;;;42.78;18.85;;;;;;;-3.01;89.31;97351.31;5045359;28;20469;-90
2023/01/23 02:44:04;;;;;;;38.55;17.25;;;;;;;-2.98;89.31;97350.91;5052388;28;20056;-90
2023/01/23 02:46:34;;;;;;;36.00;17.60;;;;;;;-2.98;89.34;97345.56;5032472;28;20097;-86
2023/01/23 02:49:01;;;;;;;36.80;17.05;;;;;;;-2.92;89.50;97343.94;5032529;28;20042;-91
2023/01/23 02:51:28;;;;;;;41.08;17.88;;;;;;;-2.95;89.54;97345.16;5030547;28;20057;-91
2023/01/23 02:53:54;;;;;;;38.28;17.27;;;;;;;-2.96;89.52;97338.19;5040149;28;20262;-89
2023/01/23 02:56:21;;;;;;;36.75;16.52;;;;;;;-2.95;89.38;97337.16;5043770;28;20456;-88
2023/01/23 03:01:34;;;;;;;36.95;17.05;;;;;;;-2.86;89.39;97340.44;5032475;28;20553;-88
2023/01/23 03:04:03;;;;;;;35.97;16.70;;;;;;;-2.83;89.67;97347.19;5023349;28;20497;-91
2023/01/23 03:06:35;;;;;;;40.60;18.20;;;;;;;-2.85;89.68;97349.25;5039557;28;20037;-91
2023/01/23 03:09:08;;;;;;;42.00;17.60;;;;;;;-2.83;89.66;97347.19;5048704;28;20047;-89
2023/01/23 03:11:36;;;;;;;37.33;17.23;;;;;;;-2.82;89.64;97348.81;5031961;28;20060;-89
2023/01/23 03:14:03;;;;;;;41.28;17.30;;;;;;;-2.80;89.61;97352.94;5040254;28;20408;-87
2023/01/23 03:16:31;;;;;;;39.03;17.52;;;;;;;-2.77;89.61;97354.34;5052303;28;20049;-88
2023/01/23 03:19:03;;;;;;;43.03;17.90;;;;;;;-2.72;89.55;97365.19;5051481;28;20049;-88
2023/01/23 03:21:31;;;;;;;40.78;18.50;;;;;;;-2.71;89.63;97362.34;5032320;28;20473;-84
2023/01/23 03:23:57;;;;;;;43.45;18.33;;;;;;;-2.67;89.67;97357.41;5042602;28;20049;-89
2023/01/23 03:26:25;;;;;;;41.03;18.73;;;;;;;-2.61;89.73;97356.59;5036044;28;20049;-91
2023/01/23 03:31:35;;;;;;;38.58;17.90;;;;;;;-2.54;89.85;97352.03;5048012;28;20072;-90
2023/01/23 03:34:03;;;;;;;42.13;18.30;;;;;;;-2.52;89.88;97357.97;5055519;28;20045;-79
2023/01/23 03:36:30;;;;;;;46.58;19.25;;;;;;;-2.49;90.03;97354.88;5055703;28;20048;-94
2023/01/23 03:41:40;;;;;;;43.28;18.85;;;;;;;-2.46;89.98;97350.97;5038047;28;20104;-89
2023/01/23 03:44:08;;;;;;;42.22;19.05;;;;;;;-2.43;89.75;97348.72;5047028;28;20100;-89
2023/01/23 03:46:34;;;;;;;47.70;19.42;;;;;;;-2.41;89.95;97351.97;5051860;28;20122;-91
2023/01/23 03:49:03;;;;;;;46.65;19.67;;;;;;;-2.41;90.02;97356.50;5036863;28;20050;-94
2023/01/23 03:51:29;;;;;;;42.97;19.23;;;;;;;-2.39;89.97;97349.94;5061031;28;20040;-89
2023/01/23 03:53:56;;;;;;;41.35;18.77;;;;;;;-2.34;89.89;97345.81;5041553;28;20049;-91
2023/01/23 03:56:23;;;;;;;46.70;20.17;;;;;;;-2.32;89.73;97343.75;5055988;28;20045;-90
2023/01/23 03:58:49;;;;;;;41.50;18.48;;;;;;;-2.27;89.73;97343.94;5055302;28;20040;-92
2023/01/23 04:01:16;;;;;;;42.63;18.63;;;;;;;-2.24;89.78;97359.53;5052482;28;20045;-89
2023/01/23 04:03:42;;;;;;;45.78;19.77;;;;;;;-2.27;89.66;97359.94;5037116;28;20050;-90
2023/01/23 04:06:10;;;;;;;49.55;20.20;;;;;;;-2.28;89.91;97361.78;5045192;28;20049;-91
2023/01/23 04:08:37;;;;;;;45.75;18.02;;;;;;;-2.24;89.73;97362.19;5038467;28;20051;-92
2023/01/23 04:11:06;;;;;;;45.67;19.73;;;;;;;-2.20;90.04;97366.06;5046005;28;20045;-93
2023/01/23 04:13:32;;;;;;;42.53;18.55;;;;;;;-2.18;89.95;97372.00;5045305;28;20095;-92
2023/01/23 04:16:00;;;;;;;42.40;19.45;;;;;;;-2.14;89.90;97367.88;5047434;28;20045;-87
2023/01/23 04:18:26;;;;;;;45.63;19.92;;;;;;;-2.11;90.12;97372.78;5040762;28;20041;-89
2023/01/23 04:20:53;;;;;;;52.58;21.40;;;;;;;-2.07;89.94;97374.00;5033821;28;20037;-89
2023/01/23 04:23:22;;;;;;;48.05;20.63;;;;;;;-2.06;90.05;97370.31;5040778;28;20052;-86
2023/01/23 04:25:49;;;;;;;48.22;20.70;;;;;;;-2.07;90.02;97362.53;5028467;28;20053;-90
2023/01/23 04:28:16;;;;;;;41.15;19.73;;;;;;;-2.04;90.04;97364.75;5036192;28;20060;-87
2023/01/23 04:30:42;;;;;;;45.80;20.58;;;;;;;-2.01;90.09;97364.34;5039323;28;20053;-88
2023/01/23 04:33:09;;;;;;;46.45;20.15;;;;;;;-2.04;90.07;97362.06;5039942;28;20037;-89
2023/01/23 04:35:35;;;;;;;47.92;20.10;;;;;;;-2.05;90.12;97355.91;5045883;28;20045;-88
2023/01/23 04:38:02;;;;;;;45.83;20.23;;;;;;;-2.12;89.88;97355.97;5044267;28;20037;-89
2023/01/23 04:40:30;;;;;;;42.90;19.30;;;;;;;-2.08;89.96;97356.38;5046452;28;20049;-91
2023/01/23 04:42:57;;;;;;;46.35;20.10;;;;;;;-2.11;89.90;97362.13;5037783;28;20049;-88
2023/01/23 04:45:23;;;;;;;46.25;19.55;;;;;;;-2.07;89.90;97368.69;5057857;28;20497;-89
2023/01/23 04:47:50;;;;;;;41.55;18.02;;;;;;;-2.02;89.88;97371.53;5057940;28;20048;-84
2023/01/23 04:50:17;;;;;;;42.45;19.80;;;;;;;-1.97;90.08;97373.56;5048260;28;20064;-89
2023/01/23 04:52:43;;;;;;;49.85;20.42;;;;;;;-1.96;90.08;97375.19;5050718;28;20508;-89
2023/01/23 04:55:10;;;;;;;43.80;19.70;;;;;;;-1.98;90.05;97366.59;5036304;28;20052;-85
2023/01/23 04:57:38;;;;;;;48.25;19.52;;;;;;;-1.94;89.81;97373.13;5043089;28;20048;-90
2023/01/23 05:00:06;;;;;;;50.20;23.08;;;;;;;-1.94;89.82;97368.59;5051263;28;20038;-88
2023/01/23 05:02:32;;;;;;;42.28;20.85;;;;;;;-1.90;89.88;97369.81;5062713;28;20047;-89
2023/01/23 05:04:59;;;;;;;47.83;22.08;;;;;;;-1.92;90.04;97377.22;5053333;28;20041;-89
2023/01/23 05:07:26;;;;;;;49.33;22.27;;;;;;;-1.88;90.24;97370.44;5033991;28;20055;-91
2023/01/23 05:09:52;;;;;;;50.70;23.25;;;;;;;-1.87;90.13;97371.25;5052049;28;20049;-88
2023/01/23 05:12:19;;;;;;;45.90;20.58;;;;;;;-1.86;90.35;97378.22;5041642;28;20512;-89
2023/01/23 05:14:47;;;;;;;44.53;20.27;;;;;;;-1.84;90.22;97379.63;5044700;28;20041;-89
2023/01/23 05:17:13;;;;;;;46.20;19.55;;;;;;;-1.81;90.53;97382.91;5047507;28;20432;-91
2023/01/23 05:19:40;;;;;;;51.83;23.02;;;;;;;-1.85;90.61;97378.00;5050841;28;20037;-86
2023/01/23 05:22:07;;;;;;;49.58;21.52;;;;;;;-1.79;90.85;97386.19;5053781;28;20049;-90
2023/01/23 05:24:33;;;;;;;48.10;21.50;;;;;;;-1.78;90.81;97393.16;5057998;28;20044;-86
2023/01/23 05:27:00;;;;;;;50.70;22.88;;;;;;;-1.82;90.63;97403.47;5040507;28;20052;-88
2023/01/23 05:29:26;;;;;;;49.67;21.08;;;;;;;-1.89;90.91;97403.47;5034949;28;20045;-90
2023/01/23 05:31:55;;;;;;;46.92;20.70;;;;;;;-1.84;91.14;97410.84;5044213;28;20056;-85
2023/01/23 05:34:21;;;;;;;49.20;22.02;;;;;;;-1.80;91.04;97413.91;5045746;28;20041;-92
2023/01/23 05:36:48;;;;;;;50.72;22.08;;;;;;;-1.78;91.05;97411.84;5056729;28;20044;-92
2023/01/23 05:39:15;;;;;;;52.20;20.10;;;;;;;-1.78;91.16;97420.66;5038638;28;20060;-89
2023/01/23 05:41:41;;;;;;;52.80;21.42;;;;;;;-1.74;91.06;97416.53;5041912;28;20041;-86
2023/01/23 05:44:08;;;;;;;49.40;21.35;;;;;;;-1.75;90.93;97414.09;5036956;28;20052;-91
2023/01/23 05:46:34;;;;;;;57.78;23.70;;;;;;;-1.74;91.23;97407.72;5043511;28;20041;-92
2023/01/23 05:49:02;;;;;;;53.90;22.90;;;;;;;-1.75;91.67;97409.56;5043829;28;20049;-90
2023/01/23 05:51:32;;;;;;;57.05;23.02;;;;;;;-1.71;91.77;97405.44;5054236;28;20047;-90
2023/01/23 05:53:59;;;;;;;57.63;23.95;;;;;;;-1.73;91.83;97394.16;5045809;28;20053;-87
2023/01/23 05:56:26;;;;;;;63.00;25.25;;;;;;;-1.72;91.95;97389.63;5041800;28;20052;-87
2023/01/23 05:58:53;;;;;;;55.10;23.88;;;;;;;-1.68;91.96;97394.31;5036105;28;20056;-88
2023/01/23 06:01:21;;;;;;;67.40;25.70;;;;;;;-1.65;91.84;97387.75;5042124;28;20042;-90
2023/01/23 06:03:48;;;;;;;62.20;24.80;;;;;;;-1.69;92.00;97391.88;5034340;28;20041;-93
2023/01/23 06:06:17;;;;;;;57.13;23.17;;;;;;;-1.66;92.19;97394.94;5033749;28;20116;-90
2023/01/23 06:08:44;;;;;;;56.35;22.92;;;;;;;-1.62;92.17;97392.63;5033977;28;20042;-91
2023/01/23 06:11:11;;;;;;;70.07;26.60;;;;;;;-1.63;92.14;97385.66;5034436;28;20068;-90
2023/01/23 06:13:37;;;;;;;68.82;26.55;;;;;;;-1.62;92.23;97392.63;5039745;28;20045;-92
2023/01/23 06:16:05;;;;;;;67.82;26.80;;;;;;;-1.61;92.05;97394.31;5033020;28;20564;-90
2023/01/23 06:18:31;;;;;;;59.78;23.77;;;;;;;-1.60;92.09;97401.28;5043669;28;20044;-93
2023/01/23 06:20:59;;;;;;;54.92;23.50;;;;;;;-1.60;92.12;97401.28;5054474;28;20048;-93
2023/01/23 06:23:28;;;;;;;53.53;22.45;;;;;;;-1.66;92.11;97413.63;5045346;28;20048;-93
2023/01/23 06:26:01;;;;;;;49.88;22.40;;;;;;;-1.61;91.94;97415.66;5046702;28;20071;-93
2023/01/23 06:28:28;;;;;;;;;;;;;;;-1.64;91.78;97416.91;5048092;28;20457;-93
2023/01/23 06:30:55;;;;;;;55.97;21.77;;;;;;;-1.61;91.91;97410.31;5054391;28;19942;-92
2023/01/23 06:33:21;;;;;;;59.70;22.70;;;;;;;-1.65;91.98;97406.44;5042011;28;20124;-80
2023/01/23 06:35:48;;;;;;;55.08;22.88;;;;;;;-1.63;92.19;97397.16;5031978;28;20045;-79
2023/01/23 06:38:14;;;;;;;58.22;22.77;;;;;;;-1.59;92.26;97401.06;5031225;28;20490;-81
2023/01/23 06:40:44;;;;;;;67.85;25.98;;;;;;;-1.70;92.58;97392.91;5034842;28;20048;-86
2023/01/23 06:43:11;;;;;;;56.75;23.80;;;;;;;-1.68;92.81;97399.66;5054279;28;20049;-86
2023/01/23 06:45:37;;;;;;;59.72;23.42;;;;;;;-1.69;92.68;97403.38;5058201;28;20048;-86
2023/01/23 06:48:04;;;;;;;62.95;24.85;;;;;;;-1.63;92.79;97407.84;5048624;28;20042;-86
2023/01/23 06:50:30;;;;;;;62.97;25.02;;;;;;;-1.60;92.92;97409.28;5050088;28;20045;-84
2023/01/23 06:52:57;;;;;;;57.72;23.65;;;;;;;-1.63;93.34;97412.38;5050259;28;20053;-94
2023/01/23 06:55:24;;;;;;;57.17;23.58;;;;;;;-1.61;93.50;97415.66;5055723;28;20481;-93
2023/01/23 06:57:51;;;;;;;58.92;24.65;;;;;;;-1.67;93.47;97412.00;5038603;28;20067;-82
2023/01/23 07:00:19;;;;;;;57.25;22.83;;;;;;;-1.65;94.09;97415.28;5042599;28;20048;-93
2023/01/23 07:02:46;;;;;;;54.97;22.17;;;;;;;-1.57;93.91;97414.19;5035459;28;20516;-94
2023/01/23 07:05:12;;;;;;;47.95;21.05;;;;;;;-1.60;93.95;97418.13;5048575;28;20046;-93
2023/01/23 07:07:39;;;;;;;51.33;20.60;;;;;;;-1.51;94.02;97429.38;5026062;28;20103;-94
2023/01/23 07:10:07;;;;;;;46.95;20.20;;;;;;;-1.47;93.92;97433.22;5051484;28;20101;-93
2023/01/23 07:12:34;;;;;;;47.08;19.83;;;;;;;-1.51;94.01;97436.53;5049303;28;20040;-92
2023/01/23 07:15:06;;;;;;;42.15;19.50;;;;;;;-1.45;94.04;97447.22;5047018;28;20047;-93
2023/01/23 07:17:32;;;;;;;42.95;20.20;;;;;;;-1.41;94.04;97448.44;5047161;28;20045;-93
2023/01/23 07:19:59;;;;;;;49.67;21.92;;;;;;;-1.39;94.58;97457.03;5055034;28;20048;-93
2023/01/23 07:22:25;;;;;;;42.35;19.48;;;;;;;-1.41;94.41;97453.78;5047069;28;20048;-92
2023/01/23 07:24:52;;;;;;;39.00;18.42;;;;;;;-1.31;94.65;97458.63;5040419;28;20052;-94
2023/01/23 07:27:18;;;;;;;41.55;17.77;;;;;;;-1.30;94.47;97464.81;5046230;28;20163;-94
2023/01/23 07:29:45;;;;;;;37.00;17.13;;;;;;;-1.28;94.74;97462.72;5047086;28;20037;-93
2023/01/23 07:32:13;;;;;;;40.47;17.23;;;;;;;-1.23;94.60;97454.88;5047876;28;20053;-91
2023/01/23 07:34:40;;;;;;;39.30;17.00;;;;;;;-1.21;94.79;97448.28;5056426;28;20041;-91
2023/01/23 07:37:06;;;;;;;37.90;16.73;;;;;;;-1.18;94.83;97458.53;5037328;28;20052;-93
2023/01/23 07:39:33;;;;;;;37.45;16.48;;;;;;;-1.15;94.74;97452.78;5044206;28;20041;-93
2023/01/23 07:42:00;;;;;;;37.50;16.48;;;;;;;-1.12;94.75;97446.16;5027193;28;20042;-91
2023/01/23 07:44:26;;;;;;;38.75;17.65;;;;;;;-1.09;94.80;97443.06;5050964;28;20508;-91
2023/01/23 07:46:53;;;;;;;36.50;16.40;;;;;;;-1.04;94.84;97437.91;5049212;28;20041;-91
2023/01/23 07:49:21;;;;;;;38.72;17.65;;;;;;;-1.00;94.84;97441.75;5036423;28;20047;-91
2023/01/23 07:51:48;;;;;;;37.80;17.33;;;;;;;-0.99;94.72;97455.94;5046206;28;20653;-88
2023/01/23 07:54:14;;;;;;;39.50;18.70;;;;;;;-0.97;95.23;97449.34;5032326;28;20056;-91
2023/01/23 07:56:41;;;;;;;39.35;17.80;;;;;;;-1.03;95.13;97455.56;5040862;28;20038;-90
2023/01/23 07:59:07;;;;;;;37.55;17.25;;;;;;;-0.99;95.25;97448.75;5032856;28;20045;-91
2023/01/23 08:01:34;;;;;;;35.75;16.85;;;;;;;-0.96;95.47;97450.97;5033911;28;20045;-93
2023/01/23 08:04:01;;;;;;;36.90;16.80;;;;;;;-0.96;95.49;97444.81;5031940;28;20044;-93
2023/01/23 08:06:29;;;;;;;38.30;17.85;;;;;;;-0.91;95.40;97458.34;5034415;28;20116;-93
2023/01/23 08:08:55;;;;;;;40.50;18.40;;;;;;;-1.04;95.31;97453.94;5033936;28;20433;-93
2023/01/23 08:11:25;;;;;;;43.28;18.00;;;;;;;-0.97;95.53;97460.03;5016671;28;20049;-94
2023/01/23 08:13:51;;;;;;;36.40;17.33;;;;;;;-0.94;95.63;97459.63;5043701;28;20037;-92
2023/01/23 08:16:18;;;;;;;38.08;16.65;;;;;;;-1.06;95.33;97462.16;5046133;28;20041;-93
2023/01/23 08:18:45;;;;;;;40.42;17.83;;;;;;;-0.95;95.81;97452.59;5047646;28;20045;-94
2023/01/23 08:21:11;;;;;;;34.33;16.23;;;;;;;-0.89;95.89;97458.94;5044361;28;20045;-93
2023/01/23 08:23:41;;;;;;;36.13;17.13;;;;;;;-0.87;95.88;97454.22;5028752;28;20045;-93
2023/01/23 08:26:09;;;;;;;35.78;16.00;;;;;;;-0.85;95.76;97452.94;5034141;28;20046;-92
2023/01/23 08:28:36;;;;;;;36.88;16.63;;;;;;;-0.81;95.63;97454.16;5047010;28;20049;-93
2023/01/23 08:31:04;;;;;;;39.45;17.13;;;;;;;-0.83;95.48;97458.91;5044285;28;20060;-87
2023/01/23 08:33:31;;;;;;;34.58;15.88;;;;;;;-0.74;95.56;97453.25;5053345;28;20045;-92
2023/01/23 08:35:59;;;;;;;36.65;16.77;;;;;;;-0.71;95.58;97447.50;5046011;28;20060;-92
2023/01/23 08:38:25;;;;;;;35.25;15.73;;;;;;;-0.70;95.66;97446.44;5045331;28;20045;-92
2023/01/23 08:40:55;;;;;;;39.53;17.30;;;;;;;-0.74;95.67;97453.25;5054835;28;20052;-91
2023/01/23 08:43:22;;;;;;;35.45;15.70;;;;;;;-0.59;95.15;97443.06;5045994;28;20052;-92
2023/01/23 08:45:50;;;;;;;36.92;15.88;;;;;;;-0.66;94.88;97453.00;5038183;28;20512;-93
2023/01/23 08:48:17;;;;;;;41.83;17.00;;;;;;;-0.64;94.85;97454.41;5040600;28;20050;-92
2023/01/23 08:50:43;;;;;;;37.92;16.42;;;;;;;-0.58;94.85;97458.06;5042322;28;20072;-92
2023/01/23 08:53:10;;;;;;;35.60;15.77;;;;;;;-0.57;94.31;97460.53;5041134;28;20053;-92
2023/01/23 08:55:37;;;;;;;37.42;16.92;;;;;;;-0.61;94.45;97442.47;5042915;28;20046;-91
2023/01/23 08:58:06;;;;;;;37.60;17.00;;;;;;;-0.55;94.79;97444.25;5044655;28;20120;-91
2023/01/23 09:00:33;;;;;;;36.47;16.63;;;;;;;-0.59;94.73;97448.41;5044346;28;20056;-92
2023/01/23 09:02:59;;;;;;;35.15;15.35;;;;;;;-0.56;95.10;97461.34;5045060;28;20064;-89
2023/01/23 09:05:26;;;;;;;35.45;15.82;;;;;;;-0.56;94.91;97459.50;5049764;28;20041;-90
2023/01/23 09:07:53;;;;;;;32.58;15.15;;;;;;;-0.47;94.65;97454.69;5042427;28;20041;-94
2023/01/23 09:10:20;;;;;;;36.25;16.17;;;;;;;-0.45;94.53;97452.59;5039963;28;20045;-92
2023/01/23 09:12:46;;;;;;;33.40;15.25;;;;;;;-0.48;94.79;97463.72;5052469;28;20049;-90
2023/01/23 09:15:14;;;;;;;34.92;16.10;;;;;;;-0.49;94.66;97472.78;5037902;28;20042;-91
2023/01/23 09:17:41;;;;;;;32.13;14.30;;;;;;;-0.39;94.80;97459.72;5062427;28;20047;-89
2023/01/23 09:20:09;;;;;;;32.13;15.18;;;;;;;-0.36;94.26;97455.81;5063635;28;20049;-87
2023/01/23 09:22:39;;;;;;;31.95;14.20;;;;;;;-0.32;93.99;97446.28;5057660;28;20049;-90
2023/01/23 09:25:07;;;;;;;32.55;15.93;;;;;;;-0.19;93.50;97453.38;5048610;28;20037;-90
2023/01/23 09:27:33;;;;;;;28.42;13.98;;;;;;;-0.17;93.42;97448.59;5044551;28;20046;-90
2023/01/23 09:30:00;;;;;;;32.83;14.27;;;;;;;-0.17;93.55;97446.72;5058244;28;20059;-90
2023/01/23 09:32:28;;;;;;;35.30;15.10;;;;;;;-0.16;93.70;97452.91;5063239;28;20037;-91
2023/01/23 09:34:54;;;;;;;32.88;14.60;;;;;;;-0.13;93.25;97455.16;5045528;28;20042;-90
2023/01/23 09:37:21;;;;;;;33.33;15.02;;;;;;;-0.11;93.46;97447.69;5067803;28;20036;-91
2023/01/23 09:39:48;;;;;;;30.67;14.73;;;;;;;-0.08;93.63;97448.09;5065518;28;20041;-91
2023/01/23 09:42:18;;;;;;;32.40;14.60;;;;;;;-0.04;93.50;97437.75;5054224;28;20038;-90
2023/01/23 09:44:47;;;;;;;31.95;15.70;;;;;;;0.05;93.40;97447.09;5058399;28;20049;-88
2023/01/23 09:47:19;;;;;;;31.73;14.30;;;;;;;0.10;93.04;97447.25;5058758;28;20040;-88
2023/01/23 09:52:18;;;;;;;30.85;14.63;;;;;;;0.30;91.74;97455.03;5053146;28;20033;-89
2023/01/23 09:54:48;;;;;;;29.67;14.60;;;;;;;0.25;92.12;97458.41;5052649;28;20026;-90
2023/01/23 09:57:19;;;;;;;32.13;13.73;;;;;;;0.30;92.07;97462.25;5056900;28;20052;-86
2023/01/23 09:59:51;;;;;;;31.98;14.05;;;;;;;0.27;91.48;97452.00;5058766;28;20059;-84
2023/01/23 10:02:20;;;;;;;29.05;14.43;;;;;;;0.28;91.34;97450.97;5057914;28;20049;-83
2023/01/23 10:04:48;;;;;;;26.45;12.45;;;;;;;0.29;90.62;97453.41;5058322;28;20041;-85
2023/01/23 10:07:33;;;;;;;30.48;14.23;;;;;;;0.18;90.76;97443.47;5076584;28;20049;-87
2023/01/23 10:10:19;;;;;;;27.27;13.73;;;;;;;0.20;90.89;97444.84;5067429;28;20041;-88
2023/01/23 10:12:57;;;;;;;29.45;13.52;;;;;;;0.11;91.08;97451.59;5055393;28;20037;-87
2023/01/23 10:15:35;;;;;;;30.92;13.45;;;;;;;0.06;90.93;97450.63;5018145;28;20068;-87
2023/01/23 10:18:15;;;;;;;31.08;14.50;;;;;;;0.13;91.04;97432.59;5051616;28;20105;-79
2023/01/23 10:21:09;;;;;;;30.60;14.68;;;;;;;0.04;91.05;97434.75;5053363;28;20037;-88
2023/01/23 10:23:56;;;;;;;27.83;13.52;;;;;;;0.23;91.60;97439.06;5050278;28;20044;-90
2023/01/23 10:26:27;;;;;;;26.65;13.68;;;;;;;0.10;92.14;97436.53;5027189;28;20047;-90
2023/01/23 10:29:00;;;;;;;26.30;13.23;;;;;;;0.13;92.15;97438.78;5034628;28;20046;-90
2023/01/23 10:31:37;;;;;;;30.95;14.02;;;;;;;0.15;91.96;97430.50;5037868;28;20053;-88
2023/01/23 10:34:11;;;;;;;29.38;13.50;;;;;;;0.17;92.22;97426.56;5024078;28;20038;-89
2023/01/23 10:36:47;;;;;;;28.75;13.85;;;;;;;0.06;92.45;97421.97;5031639;28;20053;-90
2023/01/23 10:39:19;;;;;;;31.83;14.95;;;;;;;0.10;92.93;97416.97;5051982;28;20041;-88
2023/01/23 10:41:46;;;;;;;26.80;13.05;;;;;;;0.04;92.90;97415.19;5058447;28;20048;-88
2023/01/23 10:44:16;;;;;;;30.58;14.00;;;;;;;0.12;92.88;97415.72;5053369;28;20072;-87
2023/01/23 10:46:48;;;;;;;29.13;13.00;;;;;;;0.16;92.93;97414.22;5054590;28;20116;-84
2023/01/23 10:49:28;;;;;;;33.22;14.98;;;;;;;0.22;93.10;97412.50;5053945;28;20042;-85
2023/01/23 10:51:57;;;;;;;29.05;13.93;;;;;;;0.22;92.84;97413.31;5054468;28;20045;-85
2023/01/23 10:54:30;;;;;;;30.33;14.07;;;;;;;0.34;93.32;97409.88;5054877;28;20041;-85
2023/01/23 10:56:59;;;;;;;25.52;12.70;;;;;;;0.28;93.34;97400.06;5053583;28;20045;-85
2023/01/23 10:59:32;;;;;;;26.73;13.32;;;;;;;0.25;93.14;97399.47;5049914;28;20049;-88
2023/01/23 11:02:18;;;;;;;26.33;12.60;;;;;;;0.21;93.40;97397.47;5051762;28;20049;-87
2023/01/23 11:04:47;;;;;;;28.92;13.95;;;;;;;0.18;93.58;97398.75;5042626;28;20037;-87
2023/01/23 11:07:16;;;;;;;30.33;14.25;;;;;;;0.10;93.61;97396.34;5057161;28;20050;-86
2023/01/23 11:10:00;;;;;;;28.13;13.77;;;;;;;0.17;94.20;97380.22;5062108;28;20029;-83
2023/01/23 11:12:29;;;;;;;28.15;13.57;;;;;;;0.18;94.47;97382.66;5045994;28;20045;-84
2023/01/23 11:15:20;;;;;;;29.75;14.27;;;;;;;0.22;94.71;97383.84;5057055;28;20037;-87
2023/01/23 11:17:48;;;;;;;26.80;13.27;;;;;;;0.14;94.83;97381.47;5056212;28;20044;-86
2023/01/23 11:20:24;;;;;;;36.00;15.80;;;;;;;0.28;95.47;97389.34;5055153;28;20109;-88
2023/01/23 11:23:05;;;;;;;26.80;14.30;;;;;;;0.02;94.78;97387.84;5055284;28;20048;-86
2023/01/23 11:25:37;;;;;;;27.38;13.82;;;;;;;0.10;94.87;97385.66;5049686;28;20025;-85
2023/01/23 11:28:22;;;;;;;32.28;14.43;;;;;;;0.10;95.00;97382.97;5055388;28;20060;-79
2023/01/23 11:30:52;;;;;;;25.90;13.30;;;;;;;0.06;94.98;97387.16;5056750;28;20041;-85
2023/01/23 11:33:35;;;;;;;31.63;14.88;;;;;;;0.04;95.76;97375.84;5052654;28;20057;-82
2023/01/23 11:36:07;;;;;;;27.52;13.43;;;;;;;0.07;96.27;97364.69;5051854;28;20046;-85